sensor_id;sensor_type;location;lat;lon;timestamp;P1;durP1;ratioP1;P2;durP2;ratioP2
73684;SDS011;61985;51.070;14.064;2022-12-24T00:01:04;1.45;;;1.10;;
73684;SDS011;61985;51.070;14.064;2022-12-24T00:03:30;5.95;;;1.45;;
73684;SDS011;61985;51.070;14.064;2022-12-24T00:05:56;2.17;;;1.42;;
73684;SDS011;61985;51.070;14.064;2022-12-24T00:08:21;3.70;;;1.60;;
73684;SDS011;61985;51.070;14.064;2022-12-24T00:10:50;2.17;;;1.20;;
73684;SDS011;61985;51.070;14.064;2022-12-24T00:13:17;3.00;;;1.20;;
73684;SDS011;61985;51.070;14.064;2022-12-24T00:15:43;1.65;;;1.30;;
73684;SDS011;61985;51.070;14.064;2022-12-24T00:18:08;3.45;;;1.25;;
73684;SDS011;61985;51.070;14.064;2022-12-24T00:20:33;11.55;;;1.80;;
73684;SDS011;61985;51.070;14.064;2022-12-24T00:22:59;3.75;;;1.58;;
73684;SDS011;61985;51.070;14.064;2022-12-24T00:25:24;2.58;;;1.50;;
73684;SDS011;61985;51.070;14.064;2022-12-24T00:38:13;4.57;;;1.63;;
73684;SDS011;61985;51.070;14.064;2022-12-24T00:40:45;4.03;;;1.63;;
73684;SDS011;61985;51.070;14.064;2022-12-24T00:43:48;3.28;;;1.50;;
73684;SDS011;61985;51.070;14.064;2022-12-24T00:46:46;2.05;;;1.02;;
73684;SDS011;61985;51.070;14.064;2022-12-24T00:52:44;5.20;;;1.20;;
73684;SDS011;61985;51.070;14.064;2022-12-24T00:56:12;2.83;;;1.17;;
73684;SDS011;61985;51.070;14.064;2022-12-24T00:59:21;3.22;;;1.48;;
73684;SDS011;61985;51.070;14.064;2022-12-24T01:05:01;3.60;;;1.20;;
73684;SDS011;61985;51.070;14.064;2022-12-24T03:10:36;4.40;;;1.40;;
73684;SDS011;61985;51.070;14.064;2022-12-24T03:12:53;6.07;;;1.58;;
73684;SDS011;61985;51.070;14.064;2022-12-24T03:15:24;5.90;;;1.58;;
73684;SDS011;61985;51.070;14.064;2022-12-24T03:17:55;9.35;;;1.50;;
73684;SDS011;61985;51.070;14.064;2022-12-24T03:20:25;4.82;;;1.38;;
73684;SDS011;61985;51.070;14.064;2022-12-24T03:23:03;6.38;;;2.22;;
73684;SDS011;61985;51.070;14.064;2022-12-24T03:25:37;6.22;;;1.65;;
73684;SDS011;61985;51.070;14.064;2022-12-24T03:28:07;4.95;;;1.33;;
73684;SDS011;61985;51.070;14.064;2022-12-24T03:30:53;6.88;;;1.85;;
73684;SDS011;61985;51.070;14.064;2022-12-24T03:36:19;4.88;;;1.05;;
73684;SDS011;61985;51.070;14.064;2022-12-24T03:38:54;8.13;;;2.40;;
73684;SDS011;61985;51.070;14.064;2022-12-24T03:41:20;5.95;;;1.42;;
73684;SDS011;61985;51.070;14.064;2022-12-24T03:43:53;3.97;;;1.33;;
73684;SDS011;61985;51.070;14.064;2022-12-24T03:46:29;6.28;;;1.48;;
73684;SDS011;61985;51.070;14.064;2022-12-24T03:48:57;9.60;;;1.73;;
73684;SDS011;61985;51.070;14.064;2022-12-24T03:51:35;6.55;;;1.80;;
73684;SDS011;61985;51.070;14.064;2022-12-24T03:54:18;11.00;;;2.00;;
73684;SDS011;61985;51.070;14.064;2022-12-24T03:56:49;8.07;;;2.05;;
73684;SDS011;61985;51.070;14.064;2022-12-24T03:59:36;8.60;;;1.52;;
73684;SDS011;61985;51.070;14.064;2022-12-24T04:02:27;7.22;;;1.50;;
73684;SDS011;61985;51.070;14.064;2022-12-24T04:07:45;5.60;;;1.30;;
73684;SDS011;61985;51.070;14.064;2022-12-24T04:13:19;4.40;;;1.30;;
73684;SDS011;61985;51.070;14.064;2022-12-24T04:16:07;6.20;;;1.33;;
73684;SDS011;61985;51.070;14.064;2022-12-24T04:18:50;6.05;;;1.48;;
73684;SDS011;61985;51.070;14.064;2022-12-24T04:21:18;6.43;;;1.42;;
73684;SDS011;61985;51.070;14.064;2022-12-24T04:23:47;2.13;;;1.13;;
73684;SDS011;61985;51.070;14.064;2022-12-24T04:26:23;5.78;;;1.50;;
73684;SDS011;61985;51.070;14.064;2022-12-24T04:29:09;4.55;;;1.60;;
73684;SDS011;61985;51.070;14.064;2022-12-24T04:31:47;5.60;;;1.30;;
73684;SDS011;61985;51.070;14.064;2022-12-24T04:34:33;4.45;;;1.20;;
73684;SDS011;61985;51.070;14.064;2022-12-24T04:37:01;6.35;;;1.17;;
73684;SDS011;61985;51.070;14.064;2022-12-24T04:39:37;7.22;;;1.20;;
73684;SDS011;61985;51.070;14.064;2022-12-24T04:44:59;6.38;;;1.30;;
73684;SDS011;61985;51.070;14.064;2022-12-24T04:47:49;4.95;;;1.02;;
73684;SDS011;61985;51.070;14.064;2022-12-24T04:50:15;4.60;;;1.30;;
73684;SDS011;61985;51.070;14.064;2022-12-24T04:52:43;9.63;;;1.40;;
73684;SDS011;61985;51.070;14.064;2022-12-24T04:55:26;7.63;;;1.50;;
73684;SDS011;61985;51.070;14.064;2022-12-24T04:57:54;3.60;;;1.92;;
73684;SDS011;61985;51.070;14.064;2022-12-24T05:00:20;7.18;;;1.42;;
73684;SDS011;61985;51.070;14.064;2022-12-24T05:02:51;4.55;;;1.52;;
73684;SDS011;61985;51.070;14.064;2022-12-24T05:05:19;4.95;;;1.30;;
73684;SDS011;61985;51.070;14.064;2022-12-24T05:07:45;2.85;;;1.13;;
73684;SDS011;61985;51.070;14.064;2022-12-24T05:10:11;7.13;;;1.50;;
73684;SDS011;61985;51.070;14.064;2022-12-24T05:12:41;7.22;;;1.30;;
73684;SDS011;61985;51.070;14.064;2022-12-24T05:15:12;6.10;;;1.10;;
73684;SDS011;61985;51.070;14.064;2022-12-24T05:17:45;8.38;;;1.55;;
73684;SDS011;61985;51.070;14.064;2022-12-24T05:20:10;7.75;;;1.75;;
73684;SDS011;61985;51.070;14.064;2022-12-24T05:22:36;7.18;;;1.60;;
73684;SDS011;61985;51.070;14.064;2022-12-24T05:25:20;8.88;;;1.70;;
73684;SDS011;61985;51.070;14.064;2022-12-24T05:28:09;5.57;;;1.60;;
73684;SDS011;61985;51.070;14.064;2022-12-24T05:30:43;5.30;;;1.30;;
73684;SDS011;61985;51.070;14.064;2022-12-24T05:33:10;10.02;;;1.75;;
73684;SDS011;61985;51.070;14.064;2022-12-24T05:35:36;3.67;;;1.30;;
73684;SDS011;61985;51.070;14.064;2022-12-24T05:38:07;11.02;;;1.67;;
73684;SDS011;61985;51.070;14.064;2022-12-24T05:40:32;6.40;;;1.70;;
73684;SDS011;61985;51.070;14.064;2022-12-24T05:43:00;6.78;;;1.90;;
73684;SDS011;61985;51.070;14.064;2022-12-24T05:45:30;4.82;;;2.03;;
73684;SDS011;61985;51.070;14.064;2022-12-24T05:47:58;4.95;;;1.67;;
73684;SDS011;61985;51.070;14.064;2022-12-24T05:50:27;5.82;;;1.83;;
73684;SDS011;61985;51.070;14.064;2022-12-24T05:52:52;6.82;;;1.40;;
73684;SDS011;61985;51.070;14.064;2022-12-24T05:55:17;6.25;;;1.67;;
73684;SDS011;61985;51.070;14.064;2022-12-24T05:57:43;6.93;;;1.70;;
73684;SDS011;61985;51.070;14.064;2022-12-24T06:00:09;9.30;;;1.92;;
73684;SDS011;61985;51.070;14.064;2022-12-24T06:02:40;6.47;;;1.60;;
73684;SDS011;61985;51.070;14.064;2022-12-24T06:05:08;10.32;;;1.85;;
73684;SDS011;61985;51.070;14.064;2022-12-24T06:07:34;9.57;;;1.77;;
73684;SDS011;61985;51.070;14.064;2022-12-24T06:09:59;10.93;;;1.90;;
73684;SDS011;61985;51.070;14.064;2022-12-24T06:12:31;9.23;;;2.17;;
73684;SDS011;61985;51.070;14.064;2022-12-24T06:14:59;7.60;;;1.60;;
73684;SDS011;61985;51.070;14.064;2022-12-24T06:17:25;9.30;;;1.67;;
73684;SDS011;61985;51.070;14.064;2022-12-24T06:19:50;2.88;;;1.33;;
73684;SDS011;61985;51.070;14.064;2022-12-24T06:22:18;10.93;;;1.95;;
73684;SDS011;61985;51.070;14.064;2022-12-24T06:24:44;8.27;;;1.50;;
73684;SDS011;61985;51.070;14.064;2022-12-24T06:27:09;10.60;;;1.77;;
73684;SDS011;61985;51.070;14.064;2022-12-24T06:29:34;7.95;;;1.73;;
73684;SDS011;61985;51.070;14.064;2022-12-24T06:32:00;7.47;;;1.60;;
73684;SDS011;61985;51.070;14.064;2022-12-24T06:34:25;6.07;;;1.83;;
73684;SDS011;61985;51.070;14.064;2022-12-24T06:36:50;5.90;;;1.33;;
73684;SDS011;61985;51.070;14.064;2022-12-24T06:39:16;9.10;;;2.00;;
73684;SDS011;61985;51.070;14.064;2022-12-24T06:41:41;6.28;;;1.70;;
73684;SDS011;61985;51.070;14.064;2022-12-24T06:44:07;6.57;;;2.05;;
73684;SDS011;61985;51.070;14.064;2022-12-24T06:46:33;4.35;;;1.58;;
73684;SDS011;61985;51.070;14.064;2022-12-24T06:48:58;3.20;;;1.50;;
73684;SDS011;61985;51.070;14.064;2022-12-24T06:51:24;7.38;;;1.63;;
73684;SDS011;61985;51.070;14.064;2022-12-24T06:53:49;6.53;;;1.35;;
73684;SDS011;61985;51.070;14.064;2022-12-24T06:56:15;11.05;;;1.88;;
73684;SDS011;61985;51.070;14.064;2022-12-24T06:58:41;10.15;;;1.80;;
73684;SDS011;61985;51.070;14.064;2022-12-24T07:06:19;9.20;;;1.55;;
73684;SDS011;61985;51.070;14.064;2022-12-24T07:14:01;10.35;;;1.45;;
73684;SDS011;61985;51.070;14.064;2022-12-24T08:31:24;8.60;;;1.60;;
73684;SDS011;61985;51.070;14.064;2022-12-24T08:33:49;9.77;;;1.58;;
73684;SDS011;61985;51.070;14.064;2022-12-24T08:36:15;10.45;;;1.63;;
73684;SDS011;61985;51.070;14.064;2022-12-24T09:00:02;8.63;;;1.73;;
73684;SDS011;61985;51.070;14.064;2022-12-24T09:20:42;5.80;;;1.52;;
73684;SDS011;61985;51.070;14.064;2022-12-24T09:23:07;11.90;;;2.78;;
73684;SDS011;61985;51.070;14.064;2022-12-24T09:25:32;9.65;;;1.77;;
73684;SDS011;61985;51.070;14.064;2022-12-24T09:27:58;8.70;;;1.90;;
73684;SDS011;61985;51.070;14.064;2022-12-24T09:30:23;9.82;;;2.08;;
73684;SDS011;61985;51.070;14.064;2022-12-24T09:32:49;7.15;;;1.80;;
73684;SDS011;61985;51.070;14.064;2022-12-24T09:35:15;7.25;;;1.83;;
73684;SDS011;61985;51.070;14.064;2022-12-24T09:37:41;7.13;;;2.10;;
73684;SDS011;61985;51.070;14.064;2022-12-24T09:40:06;5.70;;;1.58;;
73684;SDS011;61985;51.070;14.064;2022-12-24T09:42:52;9.35;;;2.05;;
73684;SDS011;61985;51.070;14.064;2022-12-24T09:45:28;12.07;;;2.05;;
73684;SDS011;61985;51.070;14.064;2022-12-24T09:50:49;9.35;;;2.40;;
73684;SDS011;61985;51.070;14.064;2022-12-24T09:56:14;10.68;;;1.80;;
73684;SDS011;61985;51.070;14.064;2022-12-24T09:58:46;12.25;;;1.98;;
73684;SDS011;61985;51.070;14.064;2022-12-24T10:01:15;8.93;;;2.17;;
73684;SDS011;61985;51.070;14.064;2022-12-24T10:03:42;5.97;;;1.60;;
73684;SDS011;61985;51.070;14.064;2022-12-24T10:06:10;10.55;;;1.90;;
73684;SDS011;61985;51.070;14.064;2022-12-24T10:17:29;9.65;;;2.25;;
73684;SDS011;61985;51.070;14.064;2022-12-24T10:23:04;11.32;;;2.25;;
73684;SDS011;61985;51.070;14.064;2022-12-24T10:25:45;9.18;;;2.50;;
73684;SDS011;61985;51.070;14.064;2022-12-24T10:28:23;8.38;;;2.20;;
73684;SDS011;61985;51.070;14.064;2022-12-24T10:30:57;10.48;;;2.08;;
73684;SDS011;61985;51.070;14.064;2022-12-24T10:33:30;5.60;;;1.42;;
73684;SDS011;61985;51.070;14.064;2022-12-24T10:36:00;9.15;;;2.05;;
73684;SDS011;61985;51.070;14.064;2022-12-24T10:38:25;9.88;;;2.00;;
73684;SDS011;61985;51.070;14.064;2022-12-24T10:40:51;10.15;;;2.03;;
73684;SDS011;61985;51.070;14.064;2022-12-24T10:43:20;14.68;;;2.67;;
73684;SDS011;61985;51.070;14.064;2022-12-24T10:45:50;13.18;;;2.88;;
73684;SDS011;61985;51.070;14.064;2022-12-24T10:48:24;14.02;;;2.95;;
73684;SDS011;61985;51.070;14.064;2022-12-24T10:50:58;8.38;;;1.90;;
73684;SDS011;61985;51.070;14.064;2022-12-24T10:53:41;7.75;;;1.67;;
73684;SDS011;61985;51.070;14.064;2022-12-24T10:56:10;13.68;;;2.25;;
73684;SDS011;61985;51.070;14.064;2022-12-24T10:58:43;15.80;;;2.30;;
73684;SDS011;61985;51.070;14.064;2022-12-24T11:01:09;11.20;;;2.28;;
73684;SDS011;61985;51.070;14.064;2022-12-24T11:03:35;11.68;;;2.00;;
73684;SDS011;61985;51.070;14.064;2022-12-24T11:08:33;10.07;;;1.70;;
73684;SDS011;61985;51.070;14.064;2022-12-24T11:11:00;4.85;;;1.60;;
73684;SDS011;61985;51.070;14.064;2022-12-24T11:15:59;9.52;;;1.92;;
73684;SDS011;61985;51.070;14.064;2022-12-24T11:18:25;12.35;;;1.85;;
73684;SDS011;61985;51.070;14.064;2022-12-24T11:20:51;10.60;;;2.28;;
73684;SDS011;61985;51.070;14.064;2022-12-24T11:23:17;8.48;;;1.88;;
73684;SDS011;61985;51.070;14.064;2022-12-24T11:25:46;6.88;;;1.77;;
73684;SDS011;61985;51.070;14.064;2022-12-24T11:31:17;7.65;;;2.00;;
73684;SDS011;61985;51.070;14.064;2022-12-24T11:33:47;11.55;;;2.15;;
73684;SDS011;61985;51.070;14.064;2022-12-24T11:36:14;7.18;;;2.65;;
73684;SDS011;61985;51.070;14.064;2022-12-24T11:38:44;10.73;;;2.35;;
73684;SDS011;61985;51.070;14.064;2022-12-24T11:41:16;8.90;;;1.83;;
73684;SDS011;61985;51.070;14.064;2022-12-24T11:43:43;7.57;;;2.08;;
73684;SDS011;61985;51.070;14.064;2022-12-24T11:46:12;5.68;;;1.50;;
73684;SDS011;61985;51.070;14.064;2022-12-24T11:49:12;13.05;;;2.05;;
73684;SDS011;61985;51.070;14.064;2022-12-24T11:54:51;8.50;;;2.08;;
73684;SDS011;61985;51.070;14.064;2022-12-24T11:57:30;10.70;;;2.00;;
73684;SDS011;61985;51.070;14.064;2022-12-24T12:00:02;13.40;;;1.70;;
73684;SDS011;61985;51.070;14.064;2022-12-24T12:02:31;8.13;;;1.67;;
73684;SDS011;61985;51.070;14.064;2022-12-24T12:05:04;5.22;;;1.38;;
73684;SDS011;61985;51.070;14.064;2022-12-24T12:07:35;8.75;;;1.30;;
73684;SDS011;61985;51.070;14.064;2022-12-24T12:12:49;7.13;;;1.40;;
73684;SDS011;61985;51.070;14.064;2022-12-24T12:15:23;4.28;;;1.20;;
73684;SDS011;61985;51.070;14.064;2022-12-24T12:17:59;3.38;;;1.10;;
73684;SDS011;61985;51.070;14.064;2022-12-24T12:20:34;11.93;;;4.07;;
73684;SDS011;61985;51.070;14.064;2022-12-24T12:23:12;28.83;;;11.43;;
73684;SDS011;61985;51.070;14.064;2022-12-24T12:25:46;5.18;;;1.45;;
73684;SDS011;61985;51.070;14.064;2022-12-24T12:28:24;6.68;;;1.77;;
73684;SDS011;61985;51.070;14.064;2022-12-24T12:31:01;10.50;;;2.63;;
73684;SDS011;61985;51.070;14.064;2022-12-24T12:33:37;18.40;;;7.40;;
73684;SDS011;61985;51.070;14.064;2022-12-24T12:36:06;22.77;;;8.70;;
73684;SDS011;61985;51.070;14.064;2022-12-24T12:38:34;14.30;;;6.72;;
73684;SDS011;61985;51.070;14.064;2022-12-24T12:46:42;7.05;;;1.58;;
73684;SDS011;61985;51.070;14.064;2022-12-24T12:49:22;8.40;;;2.15;;
73684;SDS011;61985;51.070;14.064;2022-12-24T12:51:59;6.38;;;1.60;;
73684;SDS011;61985;51.070;14.064;2022-12-24T12:57:11;14.98;;;1.70;;
73684;SDS011;61985;51.070;14.064;2022-12-24T12:59:42;9.50;;;1.77;;
73684;SDS011;61985;51.070;14.064;2022-12-24T13:02:16;7.75;;;2.58;;
73684;SDS011;61985;51.070;14.064;2022-12-24T13:10:02;7.00;;;2.83;;
73684;SDS011;61985;51.070;14.064;2022-12-24T13:16:28;7.60;;;2.50;;
73684;SDS011;61985;51.070;14.064;2022-12-24T13:21:54;6.30;;;1.77;;
73684;SDS011;61985;51.070;14.064;2022-12-24T13:24:24;10.48;;;3.80;;
73684;SDS011;61985;51.070;14.064;2022-12-24T13:27:25;11.10;;;2.55;;
73684;SDS011;61985;51.070;14.064;2022-12-24T13:29:57;7.35;;;2.22;;
73684;SDS011;61985;51.070;14.064;2022-12-24T13:34:53;9.57;;;3.13;;
73684;SDS011;61985;51.070;14.064;2022-12-24T13:50:35;6.93;;;1.80;;
73684;SDS011;61985;51.070;14.064;2022-12-24T13:53:02;3.15;;;1.50;;
73684;SDS011;61985;51.070;14.064;2022-12-24T13:55:29;7.18;;;1.95;;
73684;SDS011;61985;51.070;14.064;2022-12-24T13:57:58;9.43;;;1.92;;
73684;SDS011;61985;51.070;14.064;2022-12-24T14:03:04;9.18;;;2.10;;
73684;SDS011;61985;51.070;14.064;2022-12-24T14:08:10;6.60;;;2.10;;
73684;SDS011;61985;51.070;14.064;2022-12-24T14:11:02;8.63;;;2.22;;
73684;SDS011;61985;51.070;14.064;2022-12-24T14:16:02;8.85;;;2.30;;
73684;SDS011;61985;51.070;14.064;2022-12-24T14:18:32;5.40;;;1.67;;
73684;SDS011;61985;51.070;14.064;2022-12-24T14:21:01;6.32;;;1.77;;
73684;SDS011;61985;51.070;14.064;2022-12-24T14:26:23;6.93;;;1.50;;
73684;SDS011;61985;51.070;14.064;2022-12-24T14:28:54;7.68;;;1.88;;
73684;SDS011;61985;51.070;14.064;2022-12-24T14:31:22;4.50;;;1.63;;
73684;SDS011;61985;51.070;14.064;2022-12-24T14:33:48;9.18;;;1.83;;
73684;SDS011;61985;51.070;14.064;2022-12-24T14:36:14;5.63;;;1.92;;
73684;SDS011;61985;51.070;14.064;2022-12-24T14:38:44;9.23;;;2.20;;
73684;SDS011;61985;51.070;14.064;2022-12-24T14:41:17;9.73;;;2.00;;
73684;SDS011;61985;51.070;14.064;2022-12-24T14:44:12;6.03;;;1.63;;
73684;SDS011;61985;51.070;14.064;2022-12-24T14:52:47;5.40;;;1.70;;
73684;SDS011;61985;51.070;14.064;2022-12-24T14:55:29;8.48;;;2.15;;
73684;SDS011;61985;51.070;14.064;2022-12-24T15:00:46;13.75;;;5.80;;
73684;SDS011;61985;51.070;14.064;2022-12-24T15:03:13;10.35;;;3.92;;
73684;SDS011;61985;51.070;14.064;2022-12-24T15:05:41;6.57;;;1.92;;
73684;SDS011;61985;51.070;14.064;2022-12-24T15:08:13;6.00;;;2.42;;
73684;SDS011;61985;51.070;14.064;2022-12-24T15:10:49;6.60;;;2.50;;
73684;SDS011;61985;51.070;14.064;2022-12-24T15:15:50;6.88;;;1.75;;
73684;SDS011;61985;51.070;14.064;2022-12-24T15:18:18;7.88;;;1.83;;
73684;SDS011;61985;51.070;14.064;2022-12-24T15:20:47;2.85;;;1.38;;
73684;SDS011;61985;51.070;14.064;2022-12-24T15:23:21;4.78;;;1.35;;
73684;SDS011;61985;51.070;14.064;2022-12-24T15:25:51;8.77;;;3.58;;
73684;SDS011;61985;51.070;14.064;2022-12-24T15:28:34;6.10;;;1.65;;
73684;SDS011;61985;51.070;14.064;2022-12-24T15:31:06;4.30;;;1.38;;
73684;SDS011;61985;51.070;14.064;2022-12-24T15:33:35;7.95;;;1.80;;
73684;SDS011;61985;51.070;14.064;2022-12-24T15:36:01;5.35;;;1.50;;
73684;SDS011;61985;51.070;14.064;2022-12-24T15:38:33;11.60;;;4.22;;
73684;SDS011;61985;51.070;14.064;2022-12-24T15:41:03;13.63;;;4.53;;
73684;SDS011;61985;51.070;14.064;2022-12-24T15:43:32;8.43;;;3.35;;
73684;SDS011;61985;51.070;14.064;2022-12-24T15:45:57;17.58;;;3.63;;
73684;SDS011;61985;51.070;14.064;2022-12-24T15:48:28;6.50;;;1.90;;
73684;SDS011;61985;51.070;14.064;2022-12-24T15:51:01;3.05;;;1.40;;
73684;SDS011;61985;51.070;14.064;2022-12-24T15:53:29;10.68;;;2.53;;
73684;SDS011;61985;51.070;14.064;2022-12-24T15:58:35;7.13;;;2.83;;
73684;SDS011;61985;51.070;14.064;2022-12-24T16:01:04;4.72;;;2.00;;
73684;SDS011;61985;51.070;14.064;2022-12-24T16:03:30;6.75;;;2.58;;
73684;SDS011;61985;51.070;14.064;2022-12-24T16:06:05;5.93;;;1.70;;
73684;SDS011;61985;51.070;14.064;2022-12-24T16:08:33;4.68;;;1.45;;
73684;SDS011;61985;51.070;14.064;2022-12-24T16:16:33;4.07;;;1.50;;
73684;SDS011;61985;51.070;14.064;2022-12-24T16:19:01;6.43;;;1.45;;
73684;SDS011;61985;51.070;14.064;2022-12-24T16:21:34;5.38;;;1.33;;
73684;SDS011;61985;51.070;14.064;2022-12-24T16:24:04;3.25;;;1.08;;
73684;SDS011;61985;51.070;14.064;2022-12-24T16:26:32;4.32;;;1.00;;
73684;SDS011;61985;51.070;14.064;2022-12-24T16:28:58;1.83;;;0.80;;
73684;SDS011;61985;51.070;14.064;2022-12-24T16:31:28;9.23;;;4.50;;
73684;SDS011;61985;51.070;14.064;2022-12-24T16:33:59;22.60;;;9.57;;
73684;SDS011;61985;51.070;14.064;2022-12-24T16:36:25;10.63;;;5.00;;
73684;SDS011;61985;51.070;14.064;2022-12-24T16:38:51;7.20;;;2.40;;
73684;SDS011;61985;51.070;14.064;2022-12-24T16:41:35;7.28;;;3.45;;
73684;SDS011;61985;51.070;14.064;2022-12-24T16:44:20;4.18;;;1.80;;
73684;SDS011;61985;51.070;14.064;2022-12-24T16:46:46;7.20;;;4.07;;
73684;SDS011;61985;51.070;14.064;2022-12-24T16:49:14;6.95;;;3.65;;
73684;SDS011;61985;51.070;14.064;2022-12-24T16:51:42;4.25;;;1.20;;
73684;SDS011;61985;51.070;14.064;2022-12-24T16:54:09;3.90;;;1.60;;
73684;SDS011;61985;51.070;14.064;2022-12-24T16:56:36;4.45;;;1.40;;
73684;SDS011;61985;51.070;14.064;2022-12-24T16:59:01;2.75;;;1.30;;
73684;SDS011;61985;51.070;14.064;2022-12-24T17:01:26;8.02;;;3.00;;
73684;SDS011;61985;51.070;14.064;2022-12-24T17:03:52;11.15;;;3.92;;
73684;SDS011;61985;51.070;14.064;2022-12-24T17:06:17;8.20;;;2.60;;
73684;SDS011;61985;51.070;14.064;2022-12-24T17:08:42;5.35;;;2.38;;
73684;SDS011;61985;51.070;14.064;2022-12-24T17:11:07;4.28;;;1.30;;
73684;SDS011;61985;51.070;14.064;2022-12-24T17:13:33;4.72;;;1.65;;
73684;SDS011;61985;51.070;14.064;2022-12-24T17:15:59;5.40;;;2.00;;
73684;SDS011;61985;51.070;14.064;2022-12-24T17:18:25;3.35;;;1.50;;
73684;SDS011;61985;51.070;14.064;2022-12-24T17:21:00;4.65;;;1.83;;
73684;SDS011;61985;51.070;14.064;2022-12-24T17:23:27;6.75;;;1.77;;
73684;SDS011;61985;51.070;14.064;2022-12-24T17:25:53;3.83;;;1.50;;
73684;SDS011;61985;51.070;14.064;2022-12-24T17:28:18;2.90;;;1.17;;
73684;SDS011;61985;51.070;14.064;2022-12-24T17:30:43;3.42;;;1.33;;
73684;SDS011;61985;51.070;14.064;2022-12-24T17:33:08;6.07;;;1.50;;
73684;SDS011;61985;51.070;14.064;2022-12-24T17:35:38;3.25;;;1.40;;
73684;SDS011;61985;51.070;14.064;2022-12-24T17:38:04;3.78;;;1.90;;
73684;SDS011;61985;51.070;14.064;2022-12-24T17:40:29;3.83;;;1.73;;
73684;SDS011;61985;51.070;14.064;2022-12-24T17:42:54;2.95;;;1.35;;
73684;SDS011;61985;51.070;14.064;2022-12-24T17:45:20;3.15;;;1.40;;
73684;SDS011;61985;51.070;14.064;2022-12-24T17:47:45;5.03;;;1.80;;
73684;SDS011;61985;51.070;14.064;2022-12-24T17:50:10;2.42;;;1.48;;
73684;SDS011;61985;51.070;14.064;2022-12-24T17:52:35;4.18;;;1.50;;
73684;SDS011;61985;51.070;14.064;2022-12-24T17:55:01;5.20;;;1.80;;
73684;SDS011;61985;51.070;14.064;2022-12-24T17:57:26;6.10;;;2.38;;
73684;SDS011;61985;51.070;14.064;2022-12-24T17:59:51;5.20;;;2.60;;
73684;SDS011;61985;51.070;14.064;2022-12-24T18:02:17;4.50;;;2.00;;
73684;SDS011;61985;51.070;14.064;2022-12-24T18:04:42;2.67;;;1.65;;
73684;SDS011;61985;51.070;14.064;2022-12-24T18:07:07;4.20;;;1.45;;
73684;SDS011;61985;51.070;14.064;2022-12-24T18:09:33;3.25;;;1.45;;
73684;SDS011;61985;51.070;14.064;2022-12-24T18:11:58;3.97;;;1.30;;
73684;SDS011;61985;51.070;14.064;2022-12-24T18:14:24;2.85;;;1.33;;
73684;SDS011;61985;51.070;14.064;2022-12-24T18:16:50;2.95;;;1.25;;
73684;SDS011;61985;51.070;14.064;2022-12-24T18:19:15;2.03;;;1.30;;
73684;SDS011;61985;51.070;14.064;2022-12-24T18:21:41;1.58;;;1.10;;
73684;SDS011;61985;51.070;14.064;2022-12-24T18:24:06;4.15;;;1.85;;
73684;SDS011;61985;51.070;14.064;2022-12-24T18:26:33;6.15;;;2.40;;
73684;SDS011;61985;51.070;14.064;2022-12-24T18:28:58;4.60;;;2.00;;
73684;SDS011;61985;51.070;14.064;2022-12-24T18:31:25;5.25;;;2.35;;
73684;SDS011;61985;51.070;14.064;2022-12-24T18:33:53;7.18;;;2.95;;
73684;SDS011;61985;51.070;14.064;2022-12-24T18:36:20;7.78;;;4.05;;
73684;SDS011;61985;51.070;14.064;2022-12-24T18:38:46;5.85;;;2.97;;
73684;SDS011;61985;51.070;14.064;2022-12-24T18:41:12;8.57;;;3.95;;
73684;SDS011;61985;51.070;14.064;2022-12-24T18:43:40;7.07;;;3.88;;
73684;SDS011;61985;51.070;14.064;2022-12-24T18:46:10;9.57;;;4.40;;
73684;SDS011;61985;51.070;14.064;2022-12-24T18:48:39;10.63;;;3.97;;
73684;SDS011;61985;51.070;14.064;2022-12-24T18:51:04;8.73;;;4.22;;
73684;SDS011;61985;51.070;14.064;2022-12-24T18:53:31;10.40;;;3.95;;
73684;SDS011;61985;51.070;14.064;2022-12-24T18:58:52;7.15;;;3.80;;
73684;SDS011;61985;51.070;14.064;2022-12-24T19:01:24;9.40;;;4.70;;
73684;SDS011;61985;51.070;14.064;2022-12-24T19:03:51;7.35;;;3.80;;
73684;SDS011;61985;51.070;14.064;2022-12-24T19:06:17;8.15;;;4.30;;
73684;SDS011;61985;51.070;14.064;2022-12-24T19:08:43;8.40;;;3.97;;
73684;SDS011;61985;51.070;14.064;2022-12-24T19:11:09;11.07;;;4.47;;
73684;SDS011;61985;51.070;14.064;2022-12-24T19:13:35;10.98;;;4.93;;
73684;SDS011;61985;51.070;14.064;2022-12-24T19:16:03;10.30;;;5.05;;
73684;SDS011;61985;51.070;14.064;2022-12-24T19:18:29;11.18;;;4.72;;
73684;SDS011;61985;51.070;14.064;2022-12-24T19:20:55;12.98;;;6.10;;
73684;SDS011;61985;51.070;14.064;2022-12-24T19:23:20;22.10;;;8.90;;
73684;SDS011;61985;51.070;14.064;2022-12-24T19:25:45;20.25;;;8.00;;
73684;SDS011;61985;51.070;14.064;2022-12-24T19:28:11;16.23;;;7.93;;
73684;SDS011;61985;51.070;14.064;2022-12-24T19:30:37;38.97;;;21.45;;
73684;SDS011;61985;51.070;14.064;2022-12-24T19:33:04;34.67;;;18.90;;
73684;SDS011;61985;51.070;14.064;2022-12-24T19:35:30;17.85;;;8.00;;
73684;SDS011;61985;51.070;14.064;2022-12-24T19:37:56;17.30;;;8.88;;
73684;SDS011;61985;51.070;14.064;2022-12-24T19:40:22;11.90;;;6.25;;
73684;SDS011;61985;51.070;14.064;2022-12-24T19:42:47;12.57;;;4.88;;
73684;SDS011;61985;51.070;14.064;2022-12-24T19:45:14;10.23;;;5.68;;
73684;SDS011;61985;51.070;14.064;2022-12-24T19:47:40;11.07;;;5.40;;
73684;SDS011;61985;51.070;14.064;2022-12-24T19:50:05;10.40;;;5.75;;
73684;SDS011;61985;51.070;14.064;2022-12-24T19:52:31;11.35;;;5.70;;
73684;SDS011;61985;51.070;14.064;2022-12-24T19:54:56;14.82;;;8.00;;
73684;SDS011;61985;51.070;14.064;2022-12-24T19:57:21;12.40;;;6.65;;
73684;SDS011;61985;51.070;14.064;2022-12-24T19:59:47;11.73;;;7.35;;
73684;SDS011;61985;51.070;14.064;2022-12-24T20:02:12;16.60;;;6.53;;
73684;SDS011;61985;51.070;14.064;2022-12-24T20:04:37;11.65;;;7.10;;
73684;SDS011;61985;51.070;14.064;2022-12-24T20:07:03;10.07;;;6.05;;
73684;SDS011;61985;51.070;14.064;2022-12-24T20:09:28;12.30;;;6.57;;
73684;SDS011;61985;51.070;14.064;2022-12-24T20:11:56;10.90;;;5.90;;
73684;SDS011;61985;51.070;14.064;2022-12-24T20:14:21;13.73;;;7.35;;
73684;SDS011;61985;51.070;14.064;2022-12-24T20:16:47;12.05;;;6.78;;
73684;SDS011;61985;51.070;14.064;2022-12-24T20:19:14;13.35;;;6.72;;
73684;SDS011;61985;51.070;14.064;2022-12-24T20:21:39;11.65;;;6.15;;
73684;SDS011;61985;51.070;14.064;2022-12-24T20:24:05;13.45;;;6.72;;
73684;SDS011;61985;51.070;14.064;2022-12-24T20:26:31;11.25;;;5.80;;
73684;SDS011;61985;51.070;14.064;2022-12-24T20:28:57;11.10;;;5.18;;
73684;SDS011;61985;51.070;14.064;2022-12-24T20:33:49;8.85;;;4.38;;
73684;SDS011;61985;51.070;14.064;2022-12-24T20:36:16;11.48;;;4.35;;
73684;SDS011;61985;51.070;14.064;2022-12-24T20:38:42;8.52;;;4.40;;
73684;SDS011;61985;51.070;14.064;2022-12-24T20:41:09;9.82;;;4.00;;
73684;SDS011;61985;51.070;14.064;2022-12-24T20:43:39;9.88;;;2.72;;
73684;SDS011;61985;51.070;14.064;2022-12-24T20:46:05;12.15;;;3.90;;
73684;SDS011;61985;51.070;14.064;2022-12-24T20:48:31;8.50;;;4.70;;
73684;SDS011;61985;51.070;14.064;2022-12-24T20:50:57;10.13;;;3.67;;
73684;SDS011;61985;51.070;14.064;2022-12-24T20:53:23;8.75;;;3.08;;
73684;SDS011;61985;51.070;14.064;2022-12-24T20:55:49;8.40;;;3.20;;
73684;SDS011;61985;51.070;14.064;2022-12-24T20:58:15;10.65;;;2.83;;
73684;SDS011;61985;51.070;14.064;2022-12-24T21:00:43;7.53;;;3.00;;
73684;SDS011;61985;51.070;14.064;2022-12-24T21:03:10;9.13;;;3.03;;
73684;SDS011;61985;51.070;14.064;2022-12-24T21:05:35;8.52;;;2.85;;